Tiempo atmosférico en la estación meteorológica de Láujar De Andarax, Almería (1510 m.)



Fecha
DESCASC
Temp. máxima en grados centígrados (hora)
DESCASC
Temp. mínima en grados centígrados (hora)
DESCASC
Temp. media en grados centígrados
DESCASC
Racha de viento máxima en m/sg (hora)
DESCASC
Velocidad máxima media en intervalos de 10 minutos(hora)
DESCASC
Precipitaciones diarias en mm
DESCASC
Precipitaciones de 00:00 a 06:00 en mm
DESCASC
Precipitaciones de 06:00 a 12:00 en mm
DESCASC
Precipitaciones de 12:00 a 18:00 en mm
DESCASC
Precipitaciones de 18:00 a 24:00 en mm
DESCASC
17-10-2019 21.7 (16:00) 10.1 (08:20) 15.9 7.78 (14:10) 4.72 (14:10) 0 0 0 0 0
16-10-2019 19.4 (16:50) 7.4 (08:00) 13.4 8.61 (15:10) 5 (15:10) 0 0 0 0 0
15-10-2019 17.3 (17:40) 6.2 (08:10) 11.7 7.5 (12:30) 4.17 (14:50) 0 0 0 0 0
14-10-2019 20.6 (13:20) 8 (23:50) 14.3 19.17 (17:50) 12.78 (17:50) 0 0 0 0 0
13-10-2019 24.9 (17:30) 13.8 (00:00) 19.3 10 (13:40) 6.67 (15:50) 0 0 0 0 0
12-10-2019 23.9 (16:30) 14.4 (00:00) 19.1 7.22 (16:30) 5 (16:10) 0 0 0 0 0
11-10-2019 23.9 (13:20) 14.6 (00:00) 19.3 6.39 (06:20) 3.61 (15:40) 0 0 0 0 0
10-10-2019 23.3 (15:50) 14.8 (00:00) 19 7.5 (16:10) 5.28 (16:10) 0 0 0 0 0
09-10-2019 25.8 (16:30) 15.6 (00:00) 20.7 7.5 (15:40) 4.72 (16:00) 0 0 0 0 0
08-10-2019 22.8 (15:10) 15 (00:00) 18.9 8.61 (15:10) 5 (15:10) 0 0 0 0 0
07-10-2019 25.4 (16:10) 16.3 (00:00) 20.8 12.22 (15:20) 7.5 (15:30) 0 0 0 0 0
06-10-2019 25.1 (17:10) 15.5 (00:00) 20.3 14.44 (23:50) 8.61 (23:50) 0 0 0 0 0
05-10-2019 26.1 (16:00) 16.9 (00:00) 21.5 9.17 (15:10) 5.56 (15:20) 0 0 0 0 0
04-10-2019 24 (16:10) 14.2 (00:00) 19.1 9.72 (16:00) 6.39 (15:40) 0 0 0 0 0
03-10-2019 22.1 (15:10) 10.9 (00:00) 16.5 10.56 (15:10) 7.5 (15:20) 0 0 0 0 0
02-10-2019 25.3 (16:00) 14.7 (00:00) 20 16.11 (00:10) 9.44 (23:00) 0 0 0 0 0
01-10-2019 27.5 (16:30) 16.6 (00:00) 22.1 22.22 (22:50) 16.39 (22:50) 0 0 0 0 0
30-09-2019 26.2 (16:50) 16.9 (00:00) 21.6 10.83 (22:30) 7.22 (22:30) 0 0 0 0 0
29-09-2019 27.9 (13:00) 16.8 (00:00) 22.3 10.28 (15:10) 6.67 (17:10) 0 0 0 0 0
28-09-2019 26.4 (16:40) 16.9 (00:00) 21.6 9.17 (14:40) 5.28 (17:10) 0 0 0 0 0
27-09-2019 26.5 (16:30) 16.5 (00:00) 21.5 9.44 (15:40) 6.67 (18:50) 0 0 0 0 0
26-09-2019 25 (16:10) 14.1 (00:00) 19.6 8.33 (15:50) 5 (14:10) 0 0 0 0 0
25-09-2019 26.6 (15:20) 16.6 (00:00) 21.6 9.44 (15:00) 5.56 (15:30) 0 0 0 0 0
24-09-2019 26.9 (15:40) 15.4 (00:00) 21.1 6.94 (16:20) 4.72 (16:00) 0 0 0 0 0
23-09-2019 23.4 (15:40) 13.4 (00:00) 18.4 8.33 (14:10) 5 (16:20) 0 0 0 0 0
22-09-2019 24.9 (17:00) 12.7 (00:00) 18.8 11.39 (16:20) 7.5 (16:30) 0 0 0 0 0
21-09-2019 20 (17:10) 12.2 (00:00) 16.1 9.44 (15:50) 6.11 (18:00) 0 0 0 0 0
20-09-2019 21.3 (16:40) 13 (00:00) 17.1 8.61 (19:40) 5 (19:30) 0 0 0 0 0

Gráficas

Temp. máximas Temp. mínimas Temp. medias Precipitaciones Rachas de viento máximas Velocidades máximas media en intervalos de 10 minutos

Datos horarios

Fecha y hora oficial Temperatura (ºC) Velocidad del viento (km/h) Dirección del viento Racha (km/h) Dirección de racha Precipitación (mm) Presión (hPa) Tendencia (hPa) Humedad (%)
2019-10-19 23:00:00 11.1 27 Noroeste 40 Noroeste 0 -- -- 86
2019-10-19 22:00:00 11.6 33 Norte 41 Norte 0 -- -- 79
2019-10-19 21:00:00 11.6 23 Norte 33 Norte 0 -- -- 78
2019-10-19 20:00:00 11.6 18 Noroeste 24 Norte 0 -- -- 79
2019-10-19 19:00:00 13.4 12 Norte 24 Noroeste 0 -- -- 72
2019-10-19 18:00:00 15.7 17 Noroeste 55 Noroeste 0 -- -- 65
2019-10-19 17:00:00 17.7 37 Noroeste 63 Noroeste 0 -- -- 39
2019-10-19 16:00:00 17.9 30 Noroeste 51 Noroeste 0 -- -- 47
2019-10-19 15:00:00 18.5 26 Noroeste 43 Noroeste 0 -- -- 53
2019-10-19 14:00:00 18.4 27 Noroeste 44 Noroeste 0 -- -- 53
2019-10-19 13:00:00 18.1 24 Noroeste 38 Noroeste 0 -- -- 53
2019-10-19 12:00:00 17.9 18 Noroeste 30 Noroeste 0 -- -- 53
2019-10-19 11:00:00 16.5 17 Noroeste 26 Noroeste 0 -- -- 57
2019-10-19 10:00:00 15.4 17 Noroeste 25 Noroeste 0 -- -- 59
2019-10-19 09:00:00 12.4 18 Norte 27 Norte 0 -- -- 69
2019-10-19 08:00:00 12 19 Norte 28 Norte 0 -- -- 69
2019-10-19 07:00:00 12.4 22 Norte 35 Norte 0 -- -- 65
2019-10-19 06:00:00 12.2 22 Norte 34 Norte 0 -- -- 68
2019-10-19 05:00:00 11.8 14 Norte 27 Norte 0 -- -- 67
2019-10-19 04:00:00 12.1 13 Norte 22 Norte 0 -- -- 72
2019-10-19 03:00:00 12.7 15 Norte 20 Norte 0 -- -- 70
2019-10-19 02:00:00 12.9 13 Norte 21 Norte 0 -- -- 60
2019-10-19 01:00:00 13.8 18 Norte 22 Norte 0 -- -- 58
2019-10-19 00:00:00 13.6 9 Norte 19 Norte 0 -- -- 58
2019-10-18 23:00:00 13.3 7 Nordeste 9 Este 0 -- -- 49
2019-10-18 22:00:00 13.7 4 Nordeste 9 Norte 0 -- -- 50
2019-10-18 21:00:00 14 6 Norte 12 Norte 0 -- -- 50
2019-10-18 20:00:00 14.8 9 Norte 12 Norte 0 -- -- 44
2019-10-18 19:00:00 17.3 6 Noroeste 17 Noroeste 0 -- -- 31
2019-10-18 18:00:00 18.2 12 Noroeste 22 Noroeste 0 -- -- 30
2019-10-18 17:00:00 19.9 16 Noroeste 23 Noroeste 0 -- -- 31
2019-10-18 16:00:00 20.8 17 Noroeste 28 Noroeste 0 -- -- 28
2019-10-18 15:00:00 21.5 13 Oeste 25 Oeste 0 -- -- 21
2019-10-18 14:00:00 23.4 14 Noroeste 23 Noroeste 0 -- -- 18
2019-10-18 13:00:00 21.2 11 Oeste 18 Oeste 0 -- -- 20
2019-10-18 12:00:00 20.4 8 Oeste 16 Noroeste 0 -- -- 23
2019-10-18 11:00:00 18.5 9 Noroeste 15 Noroeste 0 -- -- 26
2019-10-18 10:00:00 17.1 8 Noroeste 13 Noroeste 0 -- -- 29
2019-10-18 09:00:00 13.6 8 Noroeste 13 Noroeste 0 -- -- 32
2019-10-18 08:00:00 12.5 5 Noroeste 10 Norte 0 -- -- 34
2019-10-18 07:00:00 12.8 8 Norte 12 Noroeste 0 -- -- 27
2019-10-18 06:00:00 12.9 8 Norte 13 Norte 0 -- -- 26
2019-10-18 05:00:00 13.1 6 Norte 13 Norte 0 -- -- 31
2019-10-18 04:00:00 12.9 3 Noroeste 12 Norte 0 -- -- 33
2019-10-18 03:00:00 13.3 11 Norte 14 Norte 0 -- -- 34
2019-10-18 02:00:00 13 4 Norte 5 Norte 0 -- -- 40
2019-10-18 01:00:00 13.9 0 Calma 4 Nordeste 0 -- -- 38
2019-10-18 00:00:00 13.9 3 Norte 7 Nordeste 0 -- -- 36
2019-10-17 23:00:00 14.3 3 Este 5 Nordeste 0 -- -- 35
2019-10-17 22:00:00 14.8 4 Sudeste 6 Sudeste 0 -- -- 33
2019-10-17 21:00:00 14.4 2 Nordeste 9 Sudeste 0 -- -- 32
2019-10-17 20:00:00 14.1 7 Este 8 Este 0 -- -- 36
2019-10-17 19:00:00 18.5 4 Noroeste 15 Noroeste 0 -- -- 30
2019-10-17 18:00:00 19.9 8 Noroeste 18 Noroeste 0 -- -- 27
2019-10-17 17:00:00 19.3 12 Noroeste 22 Noroeste 0 -- -- 25
2019-10-17 16:00:00 21.7 13 Noroeste 24 Noroeste 0 -- -- 22
2019-10-17 15:00:00 20.7 13 Noroeste 28 Noroeste 0 -- -- 22
2019-10-17 14:00:00 20 15 Noroeste 23 Noroeste 0 -- -- 18
2019-10-17 13:00:00 18.5 11 Noroeste 23 Noroeste 0 -- -- 21
2019-10-17 12:00:00 18.6 13 Noroeste 21 Noroeste 0 -- -- 22
2019-10-17 11:00:00 17.6 11 Noroeste 17 Noroeste 0 -- -- 18
2019-10-17 10:00:00 15.7 10 Noroeste 14 Noroeste 0 -- -- 16
2019-10-17 09:00:00 10.6 7 Noroeste 14 Norte 0 -- -- 32
2019-10-17 08:00:00 10.9 10 Norte 15 Norte 0 -- -- 26
2019-10-17 07:00:00 11 8 Noroeste 13 Noroeste 0 -- -- 30
2019-10-17 06:00:00 10.6 6 Norte 9 Noroeste 0 -- -- 28
2019-10-17 05:00:00 10.7 5 Norte 12 Noroeste 0 -- -- 29
2019-10-17 04:00:00 11 8 Noroeste 10 Noroeste 0 -- -- 26
2019-10-17 03:00:00 11.8 2 Norte 6 Nordeste 0 -- -- 23
2019-10-17 02:00:00 10.8 4 Norte 6 Nordeste 0 -- -- 34
2019-10-17 01:00:00 11.4 2 Norte 10 Norte 0 -- -- 39
2019-10-17 00:00:00 11.1 6 Norte 10 Norte 0 -- -- 39
2019-10-16 23:00:00 12.4 2 Oeste 5 Noroeste 0 -- -- 31
2019-10-16 22:00:00 12.3 6 Norte 10 Norte 0 -- -- 28
2019-10-16 21:00:00 11.6 6 Nordeste 9 Nordeste 0 -- -- 45
2019-10-16 20:00:00 12 3 Sudeste 7 Norte 0 -- -- 50
2019-10-16 19:00:00 16.1 6 Noroeste 17 Noroeste 0 -- -- 41
2019-10-16 18:00:00 18.2 12 Noroeste 22 Noroeste 0 -- -- 35
2019-10-16 17:00:00 19.3 16 Noroeste 24 Noroeste 0 -- -- 31
2019-10-16 16:00:00 18.5 12 Noroeste 31 Noroeste 0 -- -- 25
2019-10-16 15:00:00 18.9 17 Noroeste 25 Noroeste 0 -- -- 28
2019-10-16 14:00:00 17.5 13 Noroeste 26 Noroeste 0 -- -- 27
2019-10-16 13:00:00 16.6 15 Noroeste 26 Noroeste 0 -- -- 31
2019-10-16 12:00:00 17.1 12 Noroeste 18 Noroeste 0 -- -- 29
2019-10-16 11:00:00 12.8 14 Noroeste 22 Noroeste 0 -- -- 41
2019-10-16 10:00:00 11.8 14 Noroeste 19 Norte 0 -- -- 39
2019-10-16 09:00:00 8.8 8 Noroeste 13 Noroeste 0 -- -- 41
2019-10-16 08:00:00 7.4 10 Norte 14 Norte 0 -- -- 47
2019-10-16 07:00:00 8.2 13 Norte 15 Norte 0 -- -- 51
2019-10-16 06:00:00 8.3 7 Norte 15 Norte 0 -- -- 54
2019-10-16 05:00:00 8.9 12 Norte 16 Norte 0 -- -- 53
2019-10-16 04:00:00 8.4 12 Norte 14 Norte 0 -- -- 52
2019-10-16 03:00:00 8.1 0 Calma 10 Norte 0 -- -- 58
2019-10-16 02:00:00 8.6 6 Norte 9 Norte 0 -- -- 54
2019-10-16 01:00:00 8.7 3 Norte 6 Norte 0 -- -- 60
2019-10-16 00:00:00 9.3 4 Norte 10 Noroeste 0 -- -- 52
2019-10-15 23:00:00 9.9 7 Nordeste 12 Norte 0 -- -- 56
2019-10-15 22:00:00 9.4 4 Este 6 Sudeste 0 -- -- 69
2019-10-15 21:00:00 9.1 6 Este 8 Este 0 -- -- 71
2019-10-15 20:00:00 9.4 2 Norte 10 Oeste 0 -- -- 74
2019-10-15 19:00:00 13.7 6 Noroeste 18 Noroeste 0 -- -- 53
2019-10-15 18:00:00 15.8 9 Noroeste 21 Oeste 0 -- -- 44
2019-10-15 17:00:00 16.3 11 Oeste 22 Oeste 0 -- -- 39
2019-10-15 16:00:00 16.1 9 Norte 24 Noroeste 0 -- -- 44
2019-10-15 15:00:00 15.7 14 Noroeste 27 Noroeste 0 -- -- 42
2019-10-15 14:00:00 14.7 13 Sudoeste 21 Sudoeste 0 -- -- 37
2019-10-15 13:00:00 14.5 13 Sudoeste 27 Sur 0 -- -- 41
2019-10-15 12:00:00 13.9 10 Sur 19 Sudoeste 0 -- -- 40
2019-10-15 11:00:00 13.7 6 Sur 14 Sudeste 0 -- -- 45
2019-10-15 10:00:00 11.9 5 Sur 15 Sur 0 -- -- 45
2019-10-15 09:00:00 8.3 8 Sudeste 15 Este 0 -- -- 46
2019-10-15 08:00:00 6.5 8 Sudeste 19 Sur 0 -- -- 65
2019-10-15 07:00:00 7.5 9 Sudeste 16 Sudeste 0 -- -- 49
2019-10-15 06:00:00 8.1 0 Calma 12 Sudeste 0 -- -- 55
2019-10-15 05:00:00 7.2 5 Sudeste 9 Este 0 -- -- 79
2019-10-15 04:00:00 7.3 4 Sur 14 Nordeste 0 -- -- 80
2019-10-15 03:00:00 9.5 3 Sudeste 12 Nordeste 0 -- -- 60
2019-10-15 02:00:00 8.4 2 Este 6 Oeste 0 -- -- 76
2019-10-15 01:00:00 9.3 0 Calma 12 Norte 0 -- -- 71
2019-10-15 00:00:00 8.4 14 Noroeste 22 Noroeste 0 -- -- 74
2019-10-14 23:00:00 9 14 Norte 26 Noroeste 0 -- -- 84
2019-10-14 22:00:00 9.9 19 Noroeste 27 Norte 0 -- -- 86
2019-10-14 21:00:00 11.3 20 Noroeste 37 Noroeste 0 -- -- 86
2019-10-14 20:00:00 12.3 18 Noroeste 36 Noroeste 0 -- -- 81
2019-10-14 19:00:00 13.1 26 Noroeste 51 Noroeste 0 -- -- 78
2019-10-14 18:00:00 17 42 Noroeste 69 Noroeste 0 -- -- 48
2019-10-14 17:00:00 18 32 Noroeste 64 Noroeste 0 -- -- 55
2019-10-14 16:00:00 15.3 27 Noroeste 59 Norte 0 -- -- 69
2019-10-14 15:00:00 18 24 Noroeste 54 Noroeste 0 -- -- 60
2019-10-14 14:00:00 19.1 35 Noroeste 56 Noroeste 0 -- -- 46
2019-10-14 13:00:00 20.4 29 Noroeste 49 Norte 0 -- -- 31
2019-10-14 12:00:00 18.1 32 Noroeste 48 Noroeste 0 -- -- 40
2019-10-14 11:00:00 13.8 9 Norte 43 Noroeste 0 -- -- 64
2019-10-14 10:00:00 15 21 Noroeste 29 Noroeste 0 -- -- 55
2019-10-14 09:00:00 14.1 9 Norte 32 Norte 0 -- -- 54
2019-10-14 08:00:00 13.9 22 Norte 30 Norte 0 -- -- 46
2019-10-14 07:00:00 15.4 7 Norte 12 Norte 0 -- -- 35
2019-10-14 06:00:00 16 6 Sudeste 15 Sudeste 0 -- -- 33
2019-10-14 05:00:00 16.2 5 Sudeste 15 Sudeste 0 -- -- 32
2019-10-14 04:00:00 16.5 5 Sudeste 14 Sudeste 0 -- -- 35
2019-10-14 03:00:00 16.3 8 Sudeste 17 Sudeste 0 -- -- 45
2019-10-14 02:00:00 16.3 9 Sudeste 14 Este 0 -- -- 42
2019-10-14 01:00:00 16.5 7 Sudeste 9 Sudeste 0 -- -- 35
2019-10-14 00:00:00 16.6 4 Norte 8 Noroeste 0 -- -- 35
2019-10-13 23:00:00 16.6 4 Norte 5 Norte 0 -- -- 34
2019-10-13 22:00:00 17 3 Norte 7 Este 0 -- -- 32
2019-10-13 21:00:00 17.3 3 Nordeste 13 Norte 0 -- -- 32
2019-10-13 20:00:00 17.7 10 Norte 18 Noroeste 0 -- -- 32
2019-10-13 19:00:00 22.1 15 Noroeste 23 Noroeste 0 -- -- 28
2019-10-13 18:00:00 24.5 14 Noroeste 28 Noroeste 0 -- -- 28
2019-10-13 17:00:00 24.4 15 Noroeste 36 Noroeste 0 -- -- 29
2019-10-13 16:00:00 23.9 23 Noroeste 36 Noroeste 0 -- -- 34
2019-10-13 15:00:00 23.8 22 Noroeste 34 Noroeste 0 -- -- 33
2019-10-13 14:00:00 22.9 20 Noroeste 36 Noroeste 0 -- -- 30
2019-10-13 13:00:00 22.6 18 Noroeste 29 Noroeste 0 -- -- 32
2019-10-13 12:00:00 21.8 15 Noroeste 26 Noroeste 0 -- -- 29
2019-10-13 11:00:00 21 11 Norte 21 Norte 0 -- -- 34
2019-10-13 10:00:00 19.2 5 Norte 12 Norte 0 -- -- 36
2019-10-13 09:00:00 15.7 8 Norte 12 Norte 0 -- -- 43
2019-10-13 08:00:00 14.8 8 Nordeste 12 Norte 0 -- -- 42
2019-10-13 07:00:00 15.1 8 Nordeste 11 Norte 0 -- -- 44
2019-10-13 06:00:00 15.1 0 Calma 6 Sudeste 0 -- -- 44
2019-10-13 05:00:00 14.8 0 Calma 6 Nordeste 0 -- -- 48
2019-10-13 04:00:00 14.3 0 Calma 5 Noroeste 0 -- -- 48
2019-10-13 03:00:00 15.8 3 Este 7 Sudeste 0 -- -- 43
2019-10-13 02:00:00 14.4 0 Calma 6 Nordeste 0 -- -- 52
2019-10-13 01:00:00 14.6 3 Sudeste 6 Este 0 -- -- 64
2019-10-13 00:00:00 14.4 4 Nordeste 6 Nordeste 0 -- -- 55
2019-10-12 23:00:00 15.7 5 Este 9 Sudeste 0 -- -- 46
2019-10-12 22:00:00 15.9 7 Sudeste 10 Sudeste 0 -- -- 45
2019-10-12 21:00:00 15.3 7 Sudeste 9 Sudeste 0 -- -- 68
2019-10-12 20:00:00 15.5 0 Calma 13 Oeste 0 -- -- 83
2019-10-12 19:00:00 19.5 10 Noroeste 19 Noroeste 0 -- -- 65
2019-10-12 18:00:00 23 14 Noroeste 25 Noroeste 0 -- -- 39
2019-10-12 17:00:00 22.9 15 Noroeste 26 Noroeste 0 -- -- 38
2019-10-12 16:00:00 22 12 Oeste 26 Oeste 0 -- -- 38
2019-10-12 15:00:00 20.6 12 Oeste 21 Oeste 0 -- -- 43
2019-10-12 14:00:00 19.7 6 Oeste 17 Noroeste 0 -- -- 41
2019-10-12 13:00:00 19.6 12 Oeste 18 Noroeste 0 -- -- 39
2019-10-12 12:00:00 19.6 6 Oeste 11 Sur 0 -- -- 37
2019-10-12 11:00:00 20 4 Sur 7 Sur 0 -- -- 34
2019-10-12 10:00:00 17.1 6 Noroeste 12 Este 0 -- -- 43
2019-10-12 09:00:00 16.6 8 Sudeste 14 Este 0 -- -- 43
2019-10-12 08:00:00 16.2 4 Este 8 Este 0 -- -- 41
2019-10-12 07:00:00 16.7 0 Calma 8 Nordeste 0 -- -- 40
2019-10-12 06:00:00 17 3 Este 6 Este 0 -- -- 37
2019-10-12 05:00:00 17.1 3 Sur 9 Sudeste 0 -- -- 35
2019-10-12 04:00:00 17.7 5 Sudeste 8 Este 0 -- -- 30
2019-10-12 03:00:00 17.5 7 Sudeste 12 Sudeste 0 -- -- 29
2019-10-12 02:00:00 17.8 7 Sudeste 13 Sudeste 0 -- -- 29
2019-10-12 01:00:00 16.7 4 Sudeste 13 Sudeste 0 -- -- 31
2019-10-12 00:00:00 16.6 8 Sudeste 14 Sudeste 0 -- -- 33
2019-10-11 23:00:00 17.4 6 Sudeste 12 Sudeste 0 -- -- 31
2019-10-11 22:00:00 16.8 6 Sudeste 11 Sudeste 0 -- -- 36
2019-10-11 21:00:00 17.8 6 Sudeste 9 Este 0 -- -- 38
2019-10-11 20:00:00 17.4 5 Sudeste 8 Sudeste 0 -- -- 55
2019-10-11 19:00:00 18.7 0 Calma 8 Sudoeste 0 -- -- 53
2019-10-11 18:00:00 19.2 4 Sudoeste 23 Noroeste 0 -- -- 47
2019-10-11 17:00:00 21.9 12 Noroeste 21 Noroeste 0 -- -- 37
2019-10-11 16:00:00 22.7 9 Noroeste 21 Noroeste 0 -- -- 32
2019-10-11 15:00:00 21.9 11 Noroeste 20 Noroeste 0 -- -- 31
2019-10-11 14:00:00 22.9 9 Oeste 20 Noroeste 0 -- -- 24
2019-10-11 13:00:00 21.9 10 Noroeste 18 Oeste 0 -- -- 25
2019-10-11 12:00:00 21.6 10 Oeste 15 Oeste 0 -- -- 25
2019-10-11 11:00:00 20.2 6 Sudoeste 13 Sudoeste 0 -- -- 26
2019-10-11 10:00:00 19.4 4 Sur 12 Sudeste 0 -- -- 26
2019-10-11 09:00:00 16.2 6 Sudeste 10 Sudeste 0 -- -- 42
2019-10-11 08:00:00 15.6 8 Sudeste 16 Este 0 -- -- 52
2019-10-11 07:00:00 15.2 9 Sudeste 23 Sudeste 0 -- -- 56
2019-10-11 06:00:00 14.9 9 Sudeste 22 Sur 0 -- -- 56
2019-10-11 05:00:00 14.6 6 Sudeste 17 Sudeste 0 -- -- 55
2019-10-11 04:00:00 15.4 8 Sudeste 18 Sudeste 0 -- -- 54
2019-10-11 03:00:00 15.4 9 Sudeste 15 Sudeste 0 -- -- 56
2019-10-11 02:00:00 15.4 8 Sudeste 13 Sudeste 0 -- -- 55
2019-10-11 01:00:00 16.3 7 Sudeste 13 Este 0 -- -- 50
2019-10-11 00:00:00 16 8 Sudeste 13 Sudeste 0 -- -- 46
2019-10-10 23:00:00 16.2 8 Sudeste 15 Sudeste 0 -- -- 46
2019-10-10 22:00:00 15.7 10 Sudeste 15 Este 0 -- -- 52
2019-10-10 21:00:00 14.8 8 Sudeste 12 Sudeste 0 -- -- 77
2019-10-10 20:00:00 16 3 Sur 9 Sudoeste 0 -- -- 73
2019-10-10 19:00:00 19.9 5 Sur 16 Sudoeste 0 -- -- 60
2019-10-10 18:00:00 21.4 6 Sur 19 Sur 0 -- -- 52
2019-10-10 17:00:00 21.6 10 Sudoeste 27 Noroeste 0 -- -- 50
2019-10-10 16:00:00 23.2 14 Oeste 24 Noroeste 0 -- -- 44
2019-10-10 15:00:00 22.1 10 Sudoeste 23 Oeste 0 -- -- 46
2019-10-10 14:00:00 22 9 Noroeste 22 Oeste 0 -- -- 45
2019-10-10 13:00:00 21.2 12 Oeste 19 Oeste 0 -- -- 44
2019-10-10 12:00:00 20 9 Sudoeste 15 Sudoeste 0 -- -- 49
2019-10-10 11:00:00 20 8 Sur 14 Sur 0 -- -- 51
2019-10-10 10:00:00 18.3 8 Sur 14 Sur 0 -- -- 52
2019-10-10 09:00:00 16 6 Sudeste 12 Sudeste 0 -- -- 56
2019-10-10 08:00:00 15.9 4 Sudeste 12 Este 0 -- -- 52
2019-10-10 07:00:00 16.6 7 Sudeste 11 Sudeste 0 -- -- 52
2019-10-10 06:00:00 16.6 6 Sudeste 10 Sudeste 0 -- -- 52
2019-10-10 05:00:00 16.4 8 Sudeste 10 Sudeste 0 -- -- 53
2019-10-10 04:00:00 17 7 Sudeste 10 Sudeste 0 -- -- 51
2019-10-10 03:00:00 18 4 Sudeste 10 Sudeste 0 -- -- 48
2019-10-10 02:00:00 17.3 8 Sudeste 10 Sudeste 0 -- -- 54
2019-10-10 01:00:00 18 4 Este 7 Este 0 -- -- 53
2019-10-10 00:00:00 17.9 4 Este 5 Este 0 -- -- 53
2019-10-09 23:00:00 17.5 4 Nordeste 8 Nordeste 0 -- -- 56
2019-10-09 22:00:00 18 2 Sur 8 Este 0 -- -- 54
2019-10-09 21:00:00 17.8 0 Calma 6 Este 0 -- -- 57
2019-10-09 20:00:00 18 2 Sudeste 9 Noroeste 0 -- -- 57
2019-10-09 19:00:00 21.8 5 Noroeste 18 Noroeste 0 -- -- 47
2019-10-09 18:00:00 24.1 12 Noroeste 21 Noroeste 0 -- -- 43
2019-10-09 17:00:00 24.8 15 Noroeste 22 Noroeste 0 -- -- 41
2019-10-09 16:00:00 25.1 17 Noroeste 27 Noroeste 0 -- -- 40
2019-10-09 15:00:00 24.4 13 Noroeste 22 Noroeste 0 -- -- 42
2019-10-09 14:00:00 22.6 14 Oeste 24 Noroeste 0 -- -- 45
2019-10-09 13:00:00 23 13 Noroeste 22 Noroeste 0 -- -- 43
2019-10-09 12:00:00 22.8 11 Oeste 15 Oeste 0 -- -- 40
2019-10-09 11:00:00 22.1 7 Oeste 10 Oeste 0 -- -- 41
2019-10-09 10:00:00 21.4 4 Sudoeste 7 Sur 0 -- -- 39
2019-10-09 09:00:00 18.7 4 Sudeste 7 Este 0 -- -- 42
2019-10-09 08:00:00 17.7 3 Oeste 9 Nordeste 0 -- -- 48
2019-10-09 07:00:00 17.6 2 Sur 6 Este 0 -- -- 47
2019-10-09 06:00:00 17.6 2 Nordeste 8 Este 0 -- -- 49
2019-10-09 05:00:00 17.1 3 Sudoeste 8 Este 0 -- -- 53
2019-10-09 04:00:00 16.4 4 Nordeste 8 Este 0 -- -- 57
2019-10-09 03:00:00 16.8 2 Nordeste 6 Nordeste 0 -- -- 59
2019-10-09 02:00:00 16.2 3 Sudeste 5 Norte 0 -- -- 60
2019-10-09 01:00:00 16.1 2 Este 10 Norte 0 -- -- 63
2019-10-09 00:00:00 15.9 3 Norte 10 Norte 0 -- -- 68
2019-10-08 23:00:00 15.5 0 Calma 9 Norte 0 -- -- 79
2019-10-08 22:00:00 15 3 Oeste 10 Noroeste 0 -- -- 84
2019-10-08 21:00:00 15.6 4 Norte 14 Sudeste 0 -- -- 82
2019-10-08 20:00:00 15.5 5 Norte 14 Noroeste 0 -- -- 83
2019-10-08 19:00:00 19 10 Noroeste 15 Noroeste 0 -- -- 69
2019-10-08 18:00:00 21.5 12 Noroeste 23 Noroeste 0 -- -- 63
2019-10-08 17:00:00 20.8 13 Oeste 25 Oeste 0 -- -- 62
2019-10-08 16:00:00 21.2 13 Noroeste 31 Norte 0 -- -- 63
2019-10-08 15:00:00 21.6 12 Noroeste 24 Noroeste 0 -- -- 54
2019-10-08 14:00:00 19.9 10 Oeste 23 Oeste 0 -- -- 57
2019-10-08 13:00:00 19 13 Sudoeste 21 Sudoeste 0 -- -- 62
2019-10-08 12:00:00 18.9 6 Sudoeste 17 Oeste 0 -- -- 64
2019-10-08 11:00:00 17.6 6 Oeste 12 Sudoeste 0 -- -- 71
2019-10-08 10:00:00 19 6 Sur 12 Sur 0 -- -- 41
2019-10-08 09:00:00 16.2 0 Calma 6 Sudeste 0 -- -- 44
2019-10-08 08:00:00 16.5 3 Sudeste 8 Sudeste 0 -- -- 45
2019-10-08 07:00:00 16.9 5 Sudeste 10 Sudeste 0 -- -- 40
2019-10-08 06:00:00 16.4 8 Sudeste 13 Sudeste 0 -- -- 39
2019-10-08 05:00:00 16.3 7 Nordeste 11 Nordeste 0 -- -- 43
2019-10-08 04:00:00 15.7 2 Sur 11 Sudeste 0 -- -- 42
2019-10-08 03:00:00 17.1 3 Noroeste 8 Nordeste 0 -- -- 38
2019-10-08 02:00:00 17.4 2 Nordeste 6 Sudeste 0 -- -- 40
2019-10-08 01:00:00 17.4 0 Calma 8 Sudeste 0 -- -- 42
2019-10-08 00:00:00 17.2 2 Este 9 Noroeste 0 -- -- 43
2019-10-07 23:00:00 18.3 4 Sur 17 Este 0 -- -- 40
2019-10-07 22:00:00 19.3 11 Sudeste 23 Nordeste 0 -- -- 37
2019-10-07 21:00:00 20.1 14 Nordeste 23 Nordeste 0 -- -- 36
2019-10-07 20:00:00 20.6 11 Nordeste 19 Nordeste 0 -- -- 34
2019-10-07 19:00:00 23.5 8 Norte 22 Noroeste 0 -- -- 31
2019-10-07 18:00:00 24.4 17 Norte 33 Noroeste 0 -- -- 30
2019-10-07 17:00:00 25.2 23 Noroeste 33 Norte 0 -- -- 28
2019-10-07 16:00:00 24.8 24 Noroeste 44 Noroeste 0 -- -- 30
2019-10-07 15:00:00 24.5 23 Noroeste 36 Noroeste 0 -- -- 29
2019-10-07 14:00:00 24.4 23 Noroeste 35 Noroeste 0 -- -- 26
2019-10-07 13:00:00 24 17 Noroeste 30 Noroeste 0 -- -- 25
2019-10-07 12:00:00 23.2 13 Noroeste 21 Oeste 0 -- -- 26
2019-10-07 11:00:00 22.6 12 Noroeste 19 Noroeste 0 -- -- 27
2019-10-07 10:00:00 20.5 9 Noroeste 14 Noroeste 0 -- -- 30
2019-10-07 09:00:00 17.8 9 Norte 18 Norte 0 -- -- 34
2019-10-07 08:00:00 17.2 15 Norte 21 Norte 0 -- -- 35
2019-10-07 07:00:00 16.8 13 Norte 19 Norte 0 -- -- 38
2019-10-07 06:00:00 17.5 16 Norte 20 Norte 0 -- -- 30
2019-10-07 05:00:00 17.5 7 Norte 16 Norte 0 -- -- 27
2019-10-07 04:00:00 17.4 5 Nordeste 19 Norte 0 -- -- 31
2019-10-07 03:00:00 18.3 13 Nordeste 21 Norte 0 -- -- 31
2019-10-07 02:00:00 16.9 3 Noroeste 19 Nordeste 0 -- -- 37
2019-10-07 01:00:00 17.3 4 Noroeste 37 Nordeste 0 -- -- 35
2019-10-07 00:00:00 18.7 28 Nordeste 52 Nordeste 0 -- -- 31
2019-10-06 23:00:00 18.8 20 Nordeste 36 Nordeste 0 -- -- 37
2019-10-06 22:00:00 18.4 13 Nordeste 26 Nordeste 0 -- -- 41
2019-10-06 21:00:00 18 3 Sudeste 7 Nordeste 0 -- -- 45
2019-10-06 20:00:00 17.9 5 Sudeste 12 Noroeste 0 -- -- 48
2019-10-06 19:00:00 23.2 9 Noroeste 19 Noroeste 0 -- -- 37
2019-10-06 18:00:00 24.6 13 Norte 24 Noroeste 0 -- -- 33
2019-10-06 17:00:00 24.7 15 Noroeste 28 Noroeste 0 -- -- 34
2019-10-06 16:00:00 24.6 16 Noroeste 30 Noroeste 0 -- -- 33
2019-10-06 15:00:00 24.3 18 Noroeste 31 Norte 0 -- -- 32
2019-10-06 14:00:00 23 17 Noroeste 34 Noroeste 0 -- -- 32
2019-10-06 13:00:00 22.8 14 Noroeste 22 Noroeste 0 -- -- 29
2019-10-06 12:00:00 22.2 14 Oeste 25 Sudoeste 0 -- -- 30
2019-10-06 11:00:00 21.2 9 Sudoeste 19 Sur 0 -- -- 31
2019-10-06 10:00:00 20 6 Sur 12 Sur 0 -- -- 31
2019-10-06 09:00:00 16.7 0 Calma 10 Nordeste 0 -- -- 37
2019-10-06 08:00:00 15.9 3 Norte 8 Nordeste 0 -- -- 39
2019-10-06 07:00:00 16.8 2 Nordeste 7 Sudeste 0 -- -- 36
2019-10-06 06:00:00 17.4 0 Calma 9 Norte 0 -- -- 34
2019-10-06 05:00:00 17 5 Nordeste 13 Norte 0 -- -- 36
2019-10-06 04:00:00 17.5 8 Norte 18 Nordeste 0 -- -- 37
2019-10-06 03:00:00 17.9 10 Norte 17 Norte 0 -- -- 33
2019-10-06 02:00:00 16.6 4 Nordeste 8 Norte 0 -- -- 21
2019-10-06 01:00:00 17.7 3 Este 8 Sudeste 0 -- -- 19
2019-10-06 00:00:00 18.1 2 Nordeste 8 Sudeste 0 -- -- 19
2019-10-05 23:00:00 18 7 Sudeste 11 Este 0 -- -- 30
2019-10-05 22:00:00 17.5 2 Sur 13 Sudeste 0 -- -- 37
2019-10-05 21:00:00 18 5 Sudeste 14 Nordeste 0 -- -- 42
2019-10-05 20:00:00 18.8 0 Calma 11 Noroeste 0 -- -- 37
2019-10-05 19:00:00 22.1 7 Noroeste 22 Noroeste 0 -- -- 30
2019-10-05 18:00:00 23.5 17 Noroeste 28 Noroeste 0 -- -- 30
2019-10-05 17:00:00 23.7 19 Noroeste 30 Noroeste 0 -- -- 32
2019-10-05 16:00:00 26.1 18 Noroeste 33 Noroeste 0 -- -- 28
2019-10-05 15:00:00 25.3 18 Noroeste 33 Norte 0 -- -- 26
2019-10-05 14:00:00 25 19 Noroeste 31 Noroeste 0 -- -- 26
2019-10-05 13:00:00 22.7 14 Noroeste 24 Noroeste 0 -- -- 27
2019-10-05 12:00:00 22.2 12 Oeste 18 Oeste 0 -- -- 29
2019-10-05 11:00:00 21.2 8 Oeste 12 Oeste 0 -- -- 29
2019-10-05 10:00:00 19.1 6 Noroeste 10 Noroeste 0 -- -- 29
2019-10-05 09:00:00 18 4 Sudeste 9 Sudeste 0 -- -- 27
2019-10-05 08:00:00 17.2 8 Sudeste 9 Sudeste 0 -- -- 26
2019-10-05 07:00:00 18 2 Sudeste 6 Sudeste 0 -- -- 26
2019-10-05 06:00:00 17.5 4 Este 5 Nordeste 0 -- -- 27
2019-10-05 05:00:00 17.7 4 Este 7 Norte 0 -- -- 25
2019-10-05 04:00:00 17.6 4 Nordeste 6 Nordeste 0 -- -- 28
2019-10-05 03:00:00 17.6 2 Noroeste 4 Este 0 -- -- 32
2019-10-05 02:00:00 18.3 0 Calma 9 Este 0 -- -- 32
2019-10-05 01:00:00 18.2 5 Sudeste 12 Norte 0 -- -- 30
2019-10-05 00:00:00 17.6 8 Norte 20 Norte 0 -- -- 34
2019-10-04 23:00:00 17.8 5 Nordeste 13 Norte 0 -- -- 33
2019-10-04 22:00:00 17.7 8 Nordeste 13 Norte 0 -- -- 29
2019-10-04 21:00:00 17.2 2 Norte 6 Este 0 -- -- 40
2019-10-04 20:00:00 16.5 3 Norte 14 Noroeste 0 -- -- 43
2019-10-04 19:00:00 21.3 10 Noroeste 25 Norte 0 -- -- 34
2019-10-04 18:00:00 22.7 20 Noroeste 31 Noroeste 0 -- -- 32
2019-10-04 17:00:00 23.1 19 Noroeste 31 Noroeste 0 -- -- 33
2019-10-04 16:00:00 23.5 22 Noroeste 35 Noroeste 0 -- -- 33
2019-10-04 15:00:00 22.8 21 Noroeste 33 Noroeste 0 -- -- 33
2019-10-04 14:00:00 23 21 Noroeste 32 Norte 0 -- -- 28
2019-10-04 13:00:00 22.5 17 Noroeste 26 Noroeste 0 -- -- 26
2019-10-04 12:00:00 22.3 15 Noroeste 24 Norte 0 -- -- 26
2019-10-04 11:00:00 19.5 8 Oeste 14 Oeste 0 -- -- 32
2019-10-04 10:00:00 17.4 10 Noroeste 16 Noroeste 0 -- -- 37
2019-10-04 09:00:00 14.8 7 Norte 15 Norte 0 -- -- 36
2019-10-04 08:00:00 14.3 11 Norte 19 Norte 0 -- -- 32
2019-10-04 07:00:00 14.3 10 Norte 18 Norte 0 -- -- 34
2019-10-04 06:00:00 14.5 14 Norte 21 Norte 0 -- -- 36
2019-10-04 05:00:00 14.9 13 Norte 18 Norte 0 -- -- 35
2019-10-04 04:00:00 15 16 Norte 18 Norte 0 -- -- 37
2019-10-04 03:00:00 14.7 5 Norte 9 Norte 0 -- -- 22
2019-10-04 02:00:00 16.2 3 Nordeste 9 Sudeste 0 -- -- 24
2019-10-04 01:00:00 16.1 3 Sudeste 9 Sudeste 0 -- -- 25
2019-10-04 00:00:00 15.1 4 Este 20 Sudoeste 0 -- -- 37
2019-10-03 23:00:00 16.2 6 Sudeste 30 Este 0 -- -- 21
2019-10-03 22:00:00 18.5 12 Este 31 Sudeste 0 -- -- 15
2019-10-03 21:00:00 18 17 Nordeste 36 Nordeste 0 -- -- 23
2019-10-03 20:00:00 17.3 4 Sudeste 7 Este 0 -- -- 40
2019-10-03 19:00:00 19.5 6 Noroeste 16 Oeste 0 -- -- 43
2019-10-03 18:00:00 19.8 13 Noroeste 26 Noroeste 0 -- -- 42
2019-10-03 17:00:00 21.3 17 Noroeste 31 Noroeste 0 -- -- 37
2019-10-03 16:00:00 21 19 Noroeste 38 Noroeste 0 -- -- 37
2019-10-03 15:00:00 21.7 23 Noroeste 37 Noroeste 0 -- -- 36
2019-10-03 14:00:00 20.2 21 Noroeste 35 Noroeste 0 -- -- 36
2019-10-03 13:00:00 18 16 Noroeste 32 Noroeste 0 -- -- 35
2019-10-03 12:00:00 18.3 19 Noroeste 29 Noroeste 0 -- -- 38
2019-10-03 11:00:00 17 15 Oeste 26 Oeste 0 -- -- 38
2019-10-03 10:00:00 15.4 14 Noroeste 22 Oeste 0 -- -- 47
2019-10-03 09:00:00 12.5 12 Norte 17 Norte 0 -- -- 54
2019-10-03 08:00:00 11.3 13 Norte 20 Norte 0 -- -- 61
2019-10-03 07:00:00 11.4 12 Noroeste 17 Noroeste 0 -- -- 63
2019-10-03 06:00:00 11.4 9 Noroeste 18 Norte 0 -- -- 58
2019-10-03 05:00:00 12.5 15 Norte 24 Norte 0 -- -- 44
2019-10-03 04:00:00 15.1 17 Norte 26 Norte 0 -- -- 34
2019-10-03 03:00:00 16 19 Norte 25 Norte 0 -- -- 33
2019-10-03 02:00:00 15.9 20 Norte 23 Noroeste 0 -- -- 30
2019-10-03 01:00:00 16 18 Norte 24 Norte 0 -- -- 23
2019-10-03 00:00:00 15.5 10 Oeste 56 Nordeste 0 -- -- 29
2019-10-02 23:00:00 16.1 34 Nordeste 52 Nordeste 0 -- -- 32
2019-10-02 22:00:00 15.7 14 Este 35 Este 0 -- -- 35
2019-10-02 21:00:00 16.1 6 Sur 36 Este 0 -- -- 32
2019-10-02 20:00:00 17.1 20 Norte 47 Nordeste 0 -- -- 27
2019-10-02 19:00:00 19.3 28 Nordeste 42 Nordeste 0 -- -- 24
2019-10-02 18:00:00 22.7 25 Norte 50 Nordeste 0 -- -- 23
2019-10-02 17:00:00 23.8 26 Norte 45 Nordeste 0 -- -- 22
2019-10-02 16:00:00 25.3 16 Noroeste 34 Noroeste 0 -- -- 28
2019-10-02 15:00:00 23.7 22 Noroeste 36 Noroeste 0 -- -- 28
2019-10-02 14:00:00 22.8 21 Noroeste 42 Oeste 0 -- -- 28
2019-10-02 13:00:00 22.3 19 Noroeste 31 Noroeste 0 -- -- 25
2019-10-02 12:00:00 21.5 17 Norte 30 Oeste 0 -- -- 25
2019-10-02 11:00:00 19.2 17 Noroeste 24 Oeste 0 -- -- 29
2019-10-02 10:00:00 18.3 12 Noroeste 23 Norte 0 -- -- 29
2019-10-02 09:00:00 15.9 19 Norte 26 Noroeste 0 -- -- 30
2019-10-02 08:00:00 15.4 8 Norte 19 Noroeste 0 -- -- 27
2019-10-02 07:00:00 15.9 9 Nordeste 18 Noroeste 0 -- -- 24
2019-10-02 06:00:00 17 9 Norte 38 Nordeste 0 -- -- 17
2019-10-02 05:00:00 16.8 8 Noroeste 18 Norte 0 -- -- 7
2019-10-02 04:00:00 16.9 9 Sudoeste 20 Sudoeste 0 -- -- 8
2019-10-02 03:00:00 17.5 3 Sudoeste 18 Norte 0 -- -- 9
2019-10-02 02:00:00 17.2 9 Sudoeste 37 Nordeste 0 -- -- 15
2019-10-02 01:00:00 17.1 6 Este 58 Este 0 -- -- 18
2019-10-02 00:00:00 17.3 45 Nordeste 76 Nordeste 0 -- -- 20
2019-10-01 23:00:00 16.6 48 Nordeste 80 Nordeste 0 -- -- 33
2019-10-01 22:00:00 17.3 49 Nordeste 72 Nordeste 0 -- -- 32
2019-10-01 21:00:00 18.5 37 Nordeste 62 Nordeste 0 -- -- 29
2019-10-01 20:00:00 19.4 29 Nordeste 47 Nordeste 0 -- -- 23
2019-10-01 19:00:00 20.8 33 Nordeste 51 Nordeste 0 -- -- 22
2019-10-01 18:00:00 22.6 27 Nordeste 43 Nordeste 0 -- -- 22
2019-10-01 17:00:00 26.1 15 Norte 39 Oeste 0 -- -- 17
2019-10-01 16:00:00 26 16 Norte 37 Noroeste 0 -- -- 24
2019-10-01 15:00:00 25.2 19 Noroeste 39 Noroeste 0 -- -- 21
2019-10-01 14:00:00 25 19 Noroeste 39 Noroeste 0 -- -- 22
2019-10-01 13:00:00 24.7 23 Noroeste 39 Noroeste 0 -- -- 22
2019-10-01 12:00:00 24 24 Noroeste 42 Noroeste 0 -- -- 23
2019-10-01 11:00:00 22.7 22 Noroeste 30 Noroeste 0 -- -- 22
2019-10-01 10:00:00 21.2 13 Norte 29 Norte 0 -- -- 23
2019-10-01 09:00:00 19.1 16 Norte 30 Noroeste 0 -- -- 25
2019-10-01 08:00:00 18.7 12 Norte 23 Norte 0 -- -- 25
2019-10-01 07:00:00 18.2 8 Norte 17 Norte 0 -- -- 25
2019-10-01 06:00:00 18.8 13 Norte 23 Norte 0 -- -- 25
2019-10-01 05:00:00 18.7 17 Norte 21 Norte 0 -- -- 24
2019-10-01 04:00:00 19.7 18 Norte 22 Norte 0 -- -- 23
2019-10-01 03:00:00 19.6 10 Norte 14 Norte 0 -- -- 23
2019-10-01 02:00:00 19.4 7 Norte 14 Norte 0 -- -- 21
2019-10-01 01:00:00 19.3 11 Norte 17 Norte 0 -- -- 23
2019-10-01 00:00:00 20.1 12 Norte 18 Norte 0 -- -- 23
2019-09-30 23:00:00 20.4 10 Noroeste 39 Norte 0 -- -- 22
2019-09-30 22:00:00 22.6 16 Nordeste 26 Nordeste 0 -- -- 15
2019-09-30 21:00:00 20.3 8 Nordeste 15 Norte 0 -- -- 16
2019-09-30 20:00:00 20.4 5 Noroeste 16 Nordeste 0 -- -- 37
2019-09-30 19:00:00 23.8 6 Sudeste 27 Noroeste 0 -- -- 31
2019-09-30 18:00:00 25.7 18 Noroeste 27 Noroeste 0 -- -- 28
2019-09-30 17:00:00 25.8 14 Oeste 31 Noroeste 0 -- -- 27
2019-09-30 16:00:00 26.1 18 Noroeste 32 Noroeste 0 -- -- 28
2019-09-30 15:00:00 25.7 21 Noroeste 38 Noroeste 0 -- -- 26
2019-09-30 14:00:00 24.7 15 Noroeste 33 Noroeste 0 -- -- 25
2019-09-30 13:00:00 24.3 18 Noroeste 30 Noroeste 0 -- -- 24
2019-09-30 12:00:00 22.7 18 Noroeste 28 Noroeste 0 -- -- 25
2019-09-30 11:00:00 22.2 14 Noroeste 23 Noroeste 0 -- -- 27
2019-09-30 10:00:00 21 15 Noroeste 21 Noroeste 0 -- -- 21
2019-09-30 09:00:00 17.7 10 Norte 19 Norte 0 -- -- 22
2019-09-30 08:00:00 17.7 16 Norte 20 Norte 0 -- -- 19
2019-09-30 07:00:00 17.2 14 Norte 18 Norte 0 -- -- 25
2019-09-30 06:00:00 17.3 12 Norte 16 Norte 0 -- -- 24
2019-09-30 05:00:00 17.4 8 Norte 14 Norte 0 -- -- 25
2019-09-30 04:00:00 17.2 6 Norte 9 Norte 0 -- -- 32
2019-09-30 03:00:00 17.8 5 Norte 10 Norte 0 -- -- 29
2019-09-30 02:00:00 19 2 Norte 5 Norte 0 -- -- 24
2019-09-30 01:00:00 19.3 2 Norte 6 Nordeste 0 -- -- 29
2019-09-30 00:00:00 18.9 4 Nordeste 6 Este 0 -- -- 32
2019-09-29 23:00:00 19.4 2 Oeste 9 Sudeste 0 -- -- 33
2019-09-29 22:00:00 19.7 2 Nordeste 11 Norte 0 -- -- 34
2019-09-29 21:00:00 19.6 11 Norte 21 Norte 0 -- -- 33
2019-09-29 20:00:00 20.6 17 Norte 23 Norte 0 -- -- 34
2019-09-29 19:00:00 24.9 18 Noroeste 28 Norte 0 -- -- 29
2019-09-29 18:00:00 26.7 21 Noroeste 32 Noroeste 0 -- -- 26
2019-09-29 17:00:00 25.8 23 Noroeste 33 Noroeste 0 -- -- 25
2019-09-29 16:00:00 25.9 20 Noroeste 37 Noroeste 0 -- -- 28
2019-09-29 15:00:00 26 19 Noroeste 31 Noroeste 0 -- -- 29
2019-09-29 14:00:00 26.9 18 Noroeste 29 Noroeste 0 -- -- 22
2019-09-29 13:00:00 27.9 15 Noroeste 28 Norte 0 -- -- 19
2019-09-29 12:00:00 25 14 Oeste 24 Oeste 0 -- -- 21
2019-09-29 11:00:00 24.6 5 Noroeste 17 Noroeste 0 -- -- 22
2019-09-29 10:00:00 22.6 8 Norte 20 Norte 0 -- -- 25
2019-09-29 09:00:00 19.7 16 Norte 25 Norte 0 -- -- 26
2019-09-29 08:00:00 18.9 19 Norte 24 Norte 0 -- -- 29
2019-09-29 07:00:00 18.1 12 Norte 18 Norte 0 -- -- 30
2019-09-29 06:00:00 17.7 4 Norte 13 Norte 0 -- -- 27
2019-09-29 05:00:00 17.3 10 Norte 14 Norte 0 -- -- 30
2019-09-29 04:00:00 18.7 7 Norte 13 Noroeste 0 -- -- 22
2019-09-29 03:00:00 17.7 6 Norte 14 Norte 0 -- -- 32
2019-09-29 02:00:00 17.6 7 Norte 12 Norte 0 -- -- 30
2019-09-29 01:00:00 18.2 10 Norte 14 Norte 0 -- -- 31
2019-09-29 00:00:00 18.2 2 Norte 6 Norte 0 -- -- 37
2019-09-28 23:00:00 17.6 6 Norte 10 Norte 0 -- -- 54
2019-09-28 22:00:00 18.2 3 Norte 5 Este 0 -- -- 51
2019-09-28 21:00:00 18.4 4 Nordeste 10 Nordeste 0 -- -- 58
2019-09-28 20:00:00 19.9 4 Norte 18 Noroeste 0 -- -- 55
2019-09-28 19:00:00 23.6 15 Noroeste 26 Noroeste 0 -- -- 44
2019-09-28 18:00:00 25.3 13 Noroeste 26 Noroeste 0 -- -- 37
2019-09-28 17:00:00 25.6 17 Noroeste 27 Noroeste 0 -- -- 38
2019-09-28 16:00:00 25.5 16 Noroeste 29 Noroeste 0 -- -- 32
2019-09-28 15:00:00 25.2 17 Noroeste 33 Noroeste 0 -- -- 30
2019-09-28 14:00:00 24.7 16 Noroeste 28 Norte 0 -- -- 34
2019-09-28 13:00:00 23.8 15 Oeste 27 Oeste 0 -- -- 32
2019-09-28 12:00:00 23.6 13 Oeste 22 Oeste 0 -- -- 25
2019-09-28 11:00:00 22.7 7 Oeste 13 Oeste 0 -- -- 27
2019-09-28 10:00:00 21.4 3 Norte 10 Noroeste 0 -- -- 31
2019-09-28 09:00:00 18.2 9 Norte 18 Norte 0 -- -- 32
2019-09-28 08:00:00 17.2 9 Nordeste 13 Norte 0 -- -- 31
2019-09-28 07:00:00 17.8 3 Norte 7 Norte 0 -- -- 35
2019-09-28 06:00:00 17.2 6 Norte 13 Norte 0 -- -- 38
2019-09-28 05:00:00 17.7 4 Nordeste 6 Nordeste 0 -- -- 34
2019-09-28 04:00:00 18.5 0 Calma 8 Este 0 -- -- 35
2019-09-28 03:00:00 18.1 2 Este 9 Nordeste 0 -- -- 44
2019-09-28 02:00:00 18.3 0 Calma 6 Sudeste 0 -- -- 44
2019-09-28 01:00:00 19.2 6 Sudeste 9 Sudeste 0 -- -- 44
2019-09-28 00:00:00 19.3 6 Sudeste 9 Sudeste 0 -- -- 43
2019-09-27 23:00:00 19 6 Sudeste 10 Sudeste 0 -- -- 43
2019-09-27 22:00:00 19.3 6 Sudeste 9 Sudeste 0 -- -- 42
2019-09-27 21:00:00 19.5 5 Sudeste 8 Este 0 -- -- 43
2019-09-27 20:00:00 21 4 Noroeste 25 Noroeste 0 -- -- 47
2019-09-27 19:00:00 24.9 22 Noroeste 31 Noroeste 0 -- -- 37
2019-09-27 18:00:00 25.3 18 Noroeste 33 Noroeste 0 -- -- 40
2019-09-27 17:00:00 26.2 22 Noroeste 33 Norte 0 -- -- 39
2019-09-27 16:00:00 25.7 21 Noroeste 34 Noroeste 0 -- -- 41
2019-09-27 15:00:00 25.4 19 Noroeste 32 Noroeste 0 -- -- 39
2019-09-27 14:00:00 24.6 18 Noroeste 30 Noroeste 0 -- -- 37
2019-09-27 13:00:00 23.2 16 Noroeste 28 Noroeste 0 -- -- 37
2019-09-27 12:00:00 22.9 16 Noroeste 27 Oeste 0 -- -- 31
2019-09-27 11:00:00 21.7 14 Noroeste 21 Noroeste 0 -- -- 32
2019-09-27 10:00:00 20.5 9 Noroeste 13 Noroeste 0 -- -- 35
2019-09-27 09:00:00 17.4 9 Norte 17 Norte 0 -- -- 38
2019-09-27 08:00:00 17.8 14 Norte 19 Norte 0 -- -- 26
2019-09-27 07:00:00 17.7 13 Norte 17 Norte 0 -- -- 24
2019-09-27 06:00:00 17.5 3 Norte 15 Norte 0 -- -- 34
2019-09-27 05:00:00 16.9 11 Norte 14 Norte 0 -- -- 43
2019-09-27 04:00:00 17.3 10 Norte 13 Norte 0 -- -- 44
2019-09-27 03:00:00 16.6 6 Nordeste 9 Nordeste 0 -- -- 51
2019-09-27 02:00:00 17.7 6 Este 8 Este 0 -- -- 49
2019-09-27 01:00:00 17.8 6 Este 9 Este 0 -- -- 55
2019-09-27 00:00:00 17.6 4 Sudeste 7 Este 0 -- -- 60
2019-09-26 23:00:00 17 2 Noroeste 4 Nordeste 0 -- -- 65
2019-09-26 22:00:00 17.3 0 Calma 5 Sudeste 0 -- -- 77
2019-09-26 21:00:00 17.3 3 Sudeste 7 Norte 0 -- -- 82
2019-09-26 20:00:00 18.5 5 Noroeste 11 Noroeste 0 -- -- 81
2019-09-26 19:00:00 22.5 9 Noroeste 21 Noroeste 0 -- -- 62
2019-09-26 18:00:00 23.6 9 Noroeste 21 Noroeste 0 -- -- 57
2019-09-26 17:00:00 24.4 15 Noroeste 28 Noroeste 0 -- -- 50
2019-09-26 16:00:00 24.2 11 Noroeste 30 Noroeste 0 -- -- 47
2019-09-26 15:00:00 23.7 14 Noroeste 27 Noroeste 0 -- -- 46
2019-09-26 14:00:00 23.1 17 Noroeste 27 Noroeste 0 -- -- 44
2019-09-26 13:00:00 22.9 12 Noroeste 23 Oeste 0 -- -- 36
2019-09-26 12:00:00 21.6 9 Oeste 16 Noroeste 0 -- -- 37
2019-09-26 11:00:00 20.6 5 Oeste 11 Oeste 0 -- -- 45
2019-09-26 10:00:00 18.9 3 Noroeste 6 Norte 0 -- -- 50
2019-09-26 09:00:00 15.4 4 Norte 11 Norte 0 -- -- 64
2019-09-26 08:00:00 14.6 9 Norte 10 Norte 0 -- -- 66
2019-09-26 07:00:00 14.9 6 Norte 14 Nordeste 0 -- -- 64
2019-09-26 06:00:00 14.9 10 Nordeste 14 Norte 0 -- -- 61
2019-09-26 05:00:00 15.9 13 Norte 16 Norte 0 -- -- 56
2019-09-26 04:00:00 16.1 12 Norte 15 Norte 0 -- -- 52
2019-09-26 03:00:00 16.5 10 Norte 15 Norte 0 -- -- 50
2019-09-26 02:00:00 17.3 0 Calma 5 Este 0 -- -- 46
2019-09-26 01:00:00 17.8 5 Este 9 Sudeste 0 -- -- 48
2019-09-26 00:00:00 17.4 7 Sudeste 10 Sudeste 0 -- -- 47
2019-09-25 23:00:00 17.6 6 Sudeste 8 Sudeste 0 -- -- 47
2019-09-25 22:00:00 18.1 6 Sudeste 8 Sudeste 0 -- -- 47
2019-09-25 21:00:00 18.7 0 Calma 9 Norte 0 -- -- 48
2019-09-25 20:00:00 20.5 7 Norte 17 Noroeste 0 -- -- 44
2019-09-25 19:00:00 23.5 14 Noroeste 24 Noroeste 0 -- -- 36
2019-09-25 18:00:00 25.9 18 Noroeste 26 Noroeste 0 -- -- 33
2019-09-25 17:00:00 25.2 13 Noroeste 31 Oeste 0 -- -- 33
2019-09-25 16:00:00 25.4 19 Noroeste 33 Noroeste 0 -- -- 34
2019-09-25 15:00:00 25.8 19 Norte 34 Noroeste 0 -- -- 33
2019-09-25 14:00:00 24.5 19 Noroeste 30 Noroeste 0 -- -- 31
2019-09-25 13:00:00 23.8 13 Oeste 23 Oeste 0 -- -- 31
2019-09-25 12:00:00 23 8 Oeste 17 Oeste 0 -- -- 32
2019-09-25 11:00:00 22.1 5 Noroeste 10 Noroeste 0 -- -- 32
2019-09-25 10:00:00 21.4 4 Sur 9 Sudeste 0 -- -- 31
2019-09-25 09:00:00 18.3 4 Este 6 Sudeste 0 -- -- 40
2019-09-25 08:00:00 17.1 4 Sur 8 Sudeste 0 -- -- 38
2019-09-25 07:00:00 16.9 5 Sur 10 Sur 0 -- -- 39
2019-09-25 06:00:00 16.6 6 Sudeste 10 Sudeste 0 -- -- 41
2019-09-25 05:00:00 17.3 6 Sudeste 13 Sur 0 -- -- 38
2019-09-25 04:00:00 17.2 7 Sudeste 13 Sudeste 0 -- -- 38
2019-09-25 03:00:00 17.3 7 Sudeste 11 Sudeste 0 -- -- 41
2019-09-25 02:00:00 18.5 5 Sudeste 8 Sudeste 0 -- -- 39
2019-09-25 01:00:00 19 5 Este 10 Sudeste 0 -- -- 42
2019-09-25 00:00:00 19.3 5 Sudeste 9 Sudeste 0 -- -- 43
2019-09-24 23:00:00 19.7 6 Sudeste 9 Sudeste 0 -- -- 42
2019-09-24 22:00:00 18.6 4 Este 6 Nordeste 0 -- -- 46
2019-09-24 21:00:00 19.2 0 Calma 5 Nordeste 0 -- -- 45
2019-09-24 20:00:00 22 3 Norte 12 Noroeste 0 -- -- 39
2019-09-24 19:00:00 25.8 11 Noroeste 20 Noroeste 0 -- -- 33
2019-09-24 18:00:00 26.2 13 Noroeste 22 Noroeste 0 -- -- 33
2019-09-24 17:00:00 26.3 15 Noroeste 25 Noroeste 0 -- -- 33
2019-09-24 16:00:00 26.2 17 Noroeste 25 Noroeste 0 -- -- 34
2019-09-24 15:00:00 25.2 12 Oeste 22 Noroeste 0 -- -- 34
2019-09-24 14:00:00 25.1 12 Noroeste 22 Oeste 0 -- -- 34
2019-09-24 13:00:00 23 12 Noroeste 19 Noroeste 0 -- -- 34
2019-09-24 12:00:00 22.2 12 Noroeste 16 Oeste 0 -- -- 32
2019-09-24 11:00:00 20.1 9 Noroeste 17 Oeste 0 -- -- 42
2019-09-24 10:00:00 19.2 2 Noroeste 6 Noroeste 0 -- -- 44
2019-09-24 09:00:00 16.7 0 Calma 7 Nordeste 0 -- -- 43
2019-09-24 08:00:00 15.9 3 Nordeste 6 Este 0 -- -- 46
2019-09-24 07:00:00 15.6 4 Norte 8 Norte 0 -- -- 51
2019-09-24 06:00:00 15.9 7 Norte 11 Norte 0 -- -- 51
2019-09-24 05:00:00 16 5 Norte 8 Norte 0 -- -- 60
2019-09-24 04:00:00 16.3 2 Nordeste 8 Sudeste 0 -- -- 61
2019-09-24 03:00:00 16.1 5 Sudeste 9 Sudeste 0 -- -- 58
2019-09-24 02:00:00 16.3 3 Este 8 Sudeste 0 -- -- 60
2019-09-24 01:00:00 16.1 7 Sudeste 10 Sudeste 0 -- -- 61
2019-09-24 00:00:00 16.2 5 Sudeste 8 Sudeste 0 -- -- 66
2019-09-23 23:00:00 15.8 0 Calma 5 Noroeste 0 -- -- 70
2019-09-23 22:00:00 16.3 4 Noroeste 6 Noroeste 0 -- -- 74
2019-09-23 21:00:00 16.1 5 Nordeste 6 Este 0 -- -- 72
2019-09-23 20:00:00 16.7 3 Sudeste 8 Oeste 0 -- -- 74
2019-09-23 19:00:00 19.2 6 Noroeste 22 Noroeste 0 -- -- 65
2019-09-23 18:00:00 21.7 15 Noroeste 24 Noroeste 0 -- -- 56
2019-09-23 17:00:00 22 17 Noroeste 28 Noroeste 0 -- -- 53
2019-09-23 16:00:00 22.5 17 Noroeste 27 Noroeste 0 -- -- 49
2019-09-23 15:00:00 21.4 14 Noroeste 30 Noroeste 0 -- -- 53
2019-09-23 14:00:00 20.3 12 Oeste 22 Oeste 0 -- -- 50
2019-09-23 13:00:00 19.7 10 Oeste 26 Oeste 0 -- -- 52
2019-09-23 12:00:00 19.3 11 Oeste 18 Oeste 0 -- -- 54
2019-09-23 11:00:00 18.3 7 Oeste 11 Noroeste 0 -- -- 47
2019-09-23 10:00:00 18.2 0 Calma 5 Nordeste 0 -- -- 29
2019-09-23 09:00:00 14.7 0 Calma 10 Norte 0 -- -- 43
2019-09-23 08:00:00 14.1 3 Nordeste 8 Nordeste 0 -- -- 42
2019-09-23 07:00:00 13.8 4 Nordeste 7 Nordeste 0 -- -- 42
2019-09-23 06:00:00 14.9 0 Calma 6 Sudoeste 0 -- -- 43
2019-09-23 05:00:00 14.9 3 Sudeste 6 Nordeste 0 -- -- 46
2019-09-23 04:00:00 15.2 3 Noroeste 8 Nordeste 0 -- -- 46
2019-09-23 03:00:00 15.6 0 Calma 6 Sudeste 0 -- -- 48
2019-09-23 02:00:00 15.8 0 Calma 3 Oeste 0 -- -- 51
2019-09-23 01:00:00 15.6 0 Calma 9 Sudeste 0 -- -- 59
2019-09-23 00:00:00 16.2 6 Sudeste 11 Sudeste 0 -- -- 55
2019-09-22 23:00:00 15.2 7 Sudeste 10 Sudeste 0 -- -- 73
2019-09-22 22:00:00 14.7 0 Calma 17 Norte 0 -- -- 77
2019-09-22 21:00:00 15.6 13 Norte 22 Noroeste 0 -- -- 78
2019-09-22 20:00:00 18 20 Noroeste 29 Noroeste 0 -- -- 64
2019-09-22 19:00:00 20.5 19 Noroeste 37 Noroeste 0 -- -- 61
2019-09-22 18:00:00 20.4 16 Norte 37 Noroeste 0 -- -- 57
2019-09-22 17:00:00 24.9 20 Norte 41 Noroeste 0 -- -- 47
2019-09-22 16:00:00 24 21 Norte 36 Noroeste 0 -- -- 48
2019-09-22 15:00:00 21.6 22 Noroeste 35 Noroeste 0 -- -- 48
2019-09-22 14:00:00 23.1 17 Noroeste 31 Noroeste 0 -- -- 40
2019-09-22 13:00:00 21.2 12 Noroeste 24 Oeste 0 -- -- 43
2019-09-22 12:00:00 18.6 13 Oeste 20 Oeste 0 -- -- 45
2019-09-22 11:00:00 17.2 6 Noroeste 14 Noroeste 0 -- -- 56
2019-09-22 10:00:00 15.7 13 Noroeste 25 Norte 0 -- -- 60
2019-09-22 09:00:00 13.5 18 Norte 21 Norte 0 -- -- 60
2019-09-22 08:00:00 12.9 9 Noroeste 15 Noroeste 0 -- -- 64
2019-09-22 07:00:00 14.1 10 Norte 14 Noroeste 0 -- -- 40
2019-09-22 06:00:00 13.1 3 Nordeste 22 Norte 0 -- -- 63
2019-09-22 05:00:00 13.3 19 Norte 26 Norte 0 -- -- 78
2019-09-22 04:00:00 13.9 16 Norte 25 Norte 0 -- -- 74
2019-09-22 03:00:00 13.7 15 Norte 19 Norte 0 -- -- 76
2019-09-22 02:00:00 14.1 10 Norte 25 Norte 0 -- -- 74
2019-09-22 01:00:00 14.3 12 Norte 19 Norte 0 -- -- 78
2019-09-22 00:00:00 14 9 Norte 22 Norte 0 -- -- 98
2019-09-21 23:00:00 14.4 6 Norte 17 Noroeste 0 -- -- 95
2019-09-21 22:00:00 14.7 9 Norte 12 Norte 0 -- -- 93
2019-09-21 21:00:00 14.9 3 Noroeste 9 Noroeste 0 -- -- 94
2019-09-21 20:00:00 15.8 2 Noroeste 15 Noroeste 0 -- -- 94
2019-09-21 19:00:00 17.8 10 Norte 27 Noroeste 0 -- -- 86
2019-09-21 18:00:00 18 22 Noroeste 27 Noroeste 0 -- -- 81
2019-09-21 17:00:00 19.4 17 Noroeste 30 Noroeste 0 -- -- 78
2019-09-21 16:00:00 17.5 21 Noroeste 34 Noroeste 0 -- -- 84
2019-09-21 15:00:00 19.4 19 Norte 27 Noroeste 0 -- -- 75
2019-09-21 14:00:00 18.4 12 Noroeste 30 Noroeste 0 -- -- 75
2019-09-21 13:00:00 17.3 19 Noroeste 33 Noroeste 0 -- -- 81
2019-09-21 12:00:00 17.7 15 Noroeste 23 Noroeste 0 -- -- 79
2019-09-21 11:00:00 15 14 Noroeste 24 Noroeste 0 -- -- 90
2019-09-21 10:00:00 14.5 13 Noroeste 19 Noroeste 0 -- -- 93
2019-09-21 09:00:00 13.2 2 Noroeste 13 Norte 0 -- -- 96
2019-09-21 08:00:00 12.4 4 Noroeste 13 Norte 0 -- -- 90
2019-09-21 07:00:00 12.9 6 Noroeste 16 Norte 0 -- -- 83
2019-09-21 06:00:00 13.4 11 Norte 14 Norte 0 -- -- 85
2019-09-21 05:00:00 13.6 10 Norte 14 Norte 0 -- -- 87
2019-09-21 04:00:00 13.7 9 Norte 15 Norte 0 -- -- 79
2019-09-21 03:00:00 14.1 5 Norte 10 Este 0 -- -- 81
2019-09-21 02:00:00 13.7 6 Este 8 Este 0 -- -- 97
2019-09-21 01:00:00 13.8 2 Sudeste 14 Sudeste 0 -- -- 98
2019-09-21 00:00:00 14.3 2 Sur 14 Sudeste 0 -- -- 99
2019-09-20 23:00:00 14.4 5 Sudoeste 11 Sudoeste 0 -- -- 98
2019-09-20 22:00:00 14.7 5 Sudoeste 14 Noroeste 0 -- -- 98
2019-09-20 21:00:00 14.9 5 Sur 23 Sudeste 0 -- -- 97
2019-09-20 20:00:00 15.4 6 Oeste 31 Noroeste 0 -- -- 96
2019-09-20 19:00:00 17 10 Sur 22 Noroeste 0 -- -- 85
2019-09-20 18:00:00 18.6 13 Noroeste 22 Noroeste 0 -- -- 80
2019-09-20 17:00:00 20.7 13 Noroeste 22 Noroeste 0 -- -- 65
2019-09-20 16:00:00 20.8 10 Sudoeste 22 Sudoeste 0 -- -- 66
2019-09-20 15:00:00 20.6 11 Sudoeste 23 Sudoeste 0 -- -- 67
2019-09-20 14:00:00 19.6 13 Sur 24 Sur 0 -- -- 69
2019-09-20 13:00:00 19.8 10 Sur 22 Sudoeste 0 -- -- 66
2019-09-20 12:00:00 18.9 10 Oeste 18 Oeste 0 -- -- 68
2019-09-20 11:00:00 18.7 10 Oeste 15 Oeste 0 -- -- 64
2019-09-20 10:00:00 18.8 10 Noroeste 16 Noroeste 0 -- -- 52
2019-09-20 09:00:00 16.8 6 Norte 10 Noroeste 0 -- -- 55
2019-09-20 08:00:00 16.9 3 Noroeste 14 Este 0 -- -- 53
2019-09-20 07:00:00 15.6 5 Este 11 Sudeste 0 -- -- 63
2019-09-20 06:00:00 13.9 9 Sudeste 14 Este 0 -- -- 77
2019-09-20 05:00:00 13.2 9 Sudeste 13 Este 0 -- -- 83
2019-09-20 04:00:00 13.5 8 Sudeste 10 Sudeste 0 -- -- 87
2019-09-20 03:00:00 14.4 2 Sur 12 Norte 0 -- -- 94
2019-09-20 02:00:00 14.6 6 Noroeste 9 Noroeste 0 -- -- 80
2019-09-20 01:00:00 15.7 5 Sudeste 6 Sudeste 0 -- -- 79
2019-09-20 00:00:00 16 0 Calma 6 Sudeste 0 -- -- 78